Dresden, New York
Current Conditions -  °F | °C
As of 2:53 PM on Monday 26 Jan 2015 (Local Time) from KPEO Reporting Station
Moderate Snow Moderate Snow  
Wind Chill:   Ceiling: 800
Heat Index: 15°   Visibility: 0.5mi
Dew Point: 10°   Wind: 5mph
Humidity: 80%   Direction: NA
Pressure: 29.88"   Gusts: NA
Location:  42.68°N, 76.96°W
Report Text: KPEO 261953Z AUTO VRB04KT 1/2SM SN VV008 M09/M12 A2988 RMK AO2 SLP137 P0005 T10941122 RVRNO
Loading
Personal Weather Stations






























Interactive Weather Map New forecast layout! Learn more

10-Day Weather Forecast

Advertisements
Track Severe Weather on mobile